createdAt,value
2023-04-27T00:01:45.392Z,20.05
2023-04-27T00:03:39.708Z,18.33
2023-04-27T00:05:30.884Z,22.15
2023-04-27T02:10:37.991Z,23.48
2023-04-27T02:12:41.686Z,21.50
2023-04-27T02:14:59.445Z,17.98
2023-04-27T02:16:36.094Z,19.58
2023-04-27T02:18:17.569Z,25.10
2023-04-27T02:19:44.970Z,20.45
2023-04-27T02:21:14.009Z,22.27
2023-04-27T02:22:37.944Z,15.63
2023-04-27T02:24:01.776Z,19.30
2023-04-27T02:25:26.792Z,21.35
2023-04-27T02:26:52.545Z,19.42
2023-04-27T02:28:14.282Z,15.93
2023-04-27T02:29:40.363Z,16.42
2023-04-27T02:31:04.893Z,18.27
2023-04-27T02:32:37.842Z,18.13
2023-04-27T02:35:54.421Z,20.60
2023-04-27T02:37:19.598Z,23.45
2023-04-27T02:38:41.831Z,21.63
2023-04-27T02:40:12.034Z,15.65
2023-04-27T02:41:42.114Z,17.90
2023-04-27T02:43:18.730Z,16.98
2023-04-27T02:44:41.801Z,18.42
2023-04-27T02:46:05.022Z,15.20
2023-04-27T02:47:30.075Z,17.00
2023-04-27T02:48:52.786Z,17.77
2023-04-27T02:50:15.850Z,16.27
2023-04-27T02:51:41.408Z,16.00
2023-04-27T02:53:09.028Z,20.58
2023-04-27T02:54:31.554Z,21.45
2023-04-27T02:56:00.110Z,22.02
2023-04-27T02:57:26.593Z,19.27
2023-04-27T02:58:53.616Z,17.67
2023-04-27T03:00:24.503Z,15.18
2023-04-27T03:02:05.554Z,14.82
2023-04-27T03:03:39.523Z,15.32
2023-04-27T03:05:05.603Z,24.75
2023-04-27T03:06:31.047Z,16.92
2023-04-27T03:07:53.889Z,14.52
2023-04-27T03:09:22.428Z,17.85
2023-04-27T03:10:46.362Z,19.38
2023-04-27T03:12:26.049Z,15.73
2023-04-27T03:13:57.021Z,19.52
2023-04-27T03:16:06.380Z,16.97
2023-04-27T03:17:47.439Z,18.77
2023-04-27T03:19:27.164Z,16.52
2023-04-27T03:20:50.344Z,12.65
2023-04-27T03:22:21.552Z,15.98
2023-04-27T03:23:52.385Z,15.30
2023-04-27T03:25:29.999Z,13.70
2023-04-27T03:26:52.481Z,18.17
2023-04-27T03:28:38.287Z,14.48
2023-04-27T03:30:10.236Z,13.35
2023-04-27T03:31:36.569Z,16.55
2023-04-27T03:33:06.078Z,21.52
2023-04-27T03:34:40.307Z,20.00
2023-04-27T03:36:04.981Z,17.10
2023-04-27T03:37:29.359Z,22.38
2023-04-27T03:38:57.302Z,14.75
2023-04-27T03:40:21.477Z,16.30
2023-04-27T03:41:48.655Z,16.40
2023-04-27T03:43:12.168Z,15.68
2023-04-27T03:44:43.819Z,15.95
2023-04-27T03:46:09.073Z,16.93
2023-04-27T03:47:34.942Z,17.67
2023-04-27T03:48:56.852Z,20.13
2023-04-27T03:50:20.224Z,12.80
2023-04-27T03:51:46.028Z,14.68
2023-04-27T03:53:11.600Z,17.23
2023-04-27T03:54:33.716Z,18.33
2023-04-27T03:55:56.459Z,19.38
2023-04-27T03:57:21.216Z,17.05
2023-04-27T06:09:35.066Z,15.38
2023-04-27T06:22:59.237Z,14.90
2023-04-27T06:24:36.629Z,14.02
2023-04-27T06:26:11.691Z,17.15
2023-04-27T06:27:55.066Z,14.23
2023-04-27T06:29:24.368Z,10.60
2023-04-27T06:31:46.221Z,14.63
2023-04-27T06:33:22.428Z,14.70
2023-04-27T06:34:47.754Z,13.68
2023-04-27T06:36:12.005Z,13.73
2023-04-27T06:37:39.299Z,13.52
2023-04-27T06:39:04.331Z,19.98
2023-04-27T06:40:26.372Z,11.45
2023-04-27T06:41:48.787Z,18.52
2023-04-27T06:43:15.420Z,15.82
2023-04-27T06:44:47.375Z,15.02
2023-04-27T06:46:32.051Z,13.90
2023-04-27T06:50:30.345Z,31.77
2023-04-27T06:54:35.041Z,15.15
2023-04-27T06:56:13.480Z,14.23
2023-04-27T06:58:00.195Z,12.88
2023-04-27T07:05:56.580Z,17.58
2023-04-27T07:13:07.306Z,21.05
2023-04-27T07:14:31.927Z,14.02
2023-04-27T07:15:59.176Z,12.77
2023-04-27T07:17:22.934Z,10.15
2023-04-27T07:18:51.007Z,11.05
2023-04-27T07:20:23.826Z,11.00
2023-04-27T07:21:46.245Z,12.68
2023-04-27T07:23:08.740Z,10.57
2023-04-27T07:24:34.283Z,14.10
2023-04-27T07:26:02.818Z,14.32
2023-04-27T07:27:26.808Z,6.60
2023-04-27T07:28:55.327Z,11.10
2023-04-27T07:30:24.031Z,8.30
2023-04-27T07:32:20.296Z,11.95
2023-04-27T07:33:42.826Z,10.43
2023-04-27T07:40:25.016Z,7.85
2023-04-27T07:41:50.262Z,8.75
2023-04-27T07:43:12.816Z,10.18
2023-04-27T07:44:35.259Z,8.98
2023-04-27T07:45:58.704Z,7.85
2023-04-27T07:47:24.099Z,6.72
2023-04-27T07:48:46.389Z,10.35
2023-04-27T07:50:23.638Z,12.68
2023-04-27T07:52:21.727Z,8.98
2023-04-27T07:53:38.336Z,10.85
2023-04-27T07:55:07.556Z,7.38
2023-04-27T07:56:48.756Z,11.88
2023-04-27T07:58:44.942Z,6.07
2023-04-27T08:00:11.737Z,12.02
2023-04-27T08:01:48.340Z,6.72
2023-04-27T08:03:15.256Z,9.90
2023-04-27T08:04:53.435Z,12.65
2023-04-27T08:06:27.455Z,9.95
2023-04-27T08:07:54.375Z,13.65
2023-04-27T08:10:08.247Z,10.10
2023-04-27T08:11:39.881Z,9.45
2023-04-27T08:13:02.087Z,11.75
2023-04-27T08:14:24.281Z,9.50
2023-04-27T08:15:52.105Z,8.38
2023-04-27T08:17:23.750Z,8.00
2023-04-27T08:18:48.950Z,7.25
2023-04-27T08:20:21.288Z,6.70
2023-04-27T08:21:51.632Z,10.95
2023-04-27T08:25:39.286Z,7.07
2023-04-27T08:27:50.267Z,11.65
2023-04-27T08:29:28.468Z,7.30
2023-04-27T08:31:49.783Z,8.95
2023-04-27T08:35:17.853Z,9.68
2023-04-27T08:36:46.752Z,9.23
2023-04-27T08:38:12.680Z,8.38
2023-04-27T08:39:40.821Z,8.60
2023-04-27T08:41:20.786Z,11.27
2023-04-27T08:43:04.558Z,10.63
2023-04-27T08:44:46.034Z,11.85
2023-04-27T08:46:23.641Z,9.23
2023-04-27T08:53:28.220Z,8.55
2023-04-27T08:55:29.205Z,8.85
2023-04-27T08:57:17.822Z,7.00
2023-04-27T08:58:48.540Z,11.27
2023-04-27T09:01:12.580Z,11.18
2023-04-27T09:06:22.768Z,8.23
2023-04-27T09:09:00.586Z,8.73
2023-04-27T09:10:59.849Z,8.60
2023-04-27T09:13:01.751Z,7.50
2023-04-27T09:14:36.400Z,6.63
2023-04-27T09:16:39.061Z,6.05
2023-04-27T09:39:55.551Z,7.10
2023-04-27T09:41:24.602Z,6.63
2023-04-27T09:43:05.599Z,6.55
2023-04-27T09:44:33.868Z,6.38
2023-04-27T09:48:31.023Z,6.82
2023-04-27T09:50:01.187Z,8.00
2023-04-27T09:51:43.701Z,5.25
2023-04-27T09:53:28.352Z,7.85
2023-04-27T09:55:07.539Z,5.70
2023-04-27T09:57:39.284Z,5.93
2023-04-27T09:59:49.765Z,5.63
2023-04-27T10:01:37.401Z,8.00
2023-04-27T10:03:27.723Z,5.82
2023-04-27T10:05:49.812Z,10.35
2023-04-27T10:07:45.245Z,7.93
2023-04-27T10:09:24.465Z,7.03
2023-04-27T10:10:53.634Z,7.10
2023-04-27T10:15:36.643Z,11.63
2023-04-27T10:17:13.614Z,10.93
2023-04-27T10:18:36.256Z,7.57
2023-04-27T10:20:02.720Z,10.75
2023-04-27T10:21:28.582Z,6.95
2023-04-27T10:23:04.985Z,9.23
2023-04-27T10:27:28.136Z,9.20
2023-04-27T10:29:07.556Z,7.35
2023-04-27T10:30:58.598Z,12.00
2023-04-27T10:32:37.986Z,11.65
2023-04-27T10:34:31.187Z,14.60
2023-04-27T10:39:13.235Z,12.00
2023-04-27T10:48:48.124Z,10.10
2023-04-27T10:52:55.562Z,11.68
2023-04-27T10:54:21.668Z,13.98
2023-04-27T10:55:44.019Z,12.63
2023-04-27T10:57:07.021Z,10.55
2023-04-27T10:58:37.729Z,8.77
2023-04-27T11:00:06.039Z,12.55
2023-04-27T11:01:31.982Z,10.50
2023-04-27T11:02:56.358Z,11.93
2023-04-27T11:04:20.446Z,8.35
2023-04-27T11:05:45.308Z,10.00
2023-04-27T11:07:13.742Z,11.95
2023-04-27T11:08:51.694Z,8.50
2023-04-27T11:10:18.294Z,10.77
2023-04-27T11:11:49.947Z,9.10
2023-04-27T11:13:16.577Z,6.82
2023-04-27T11:14:55.090Z,13.35
2023-04-27T11:16:20.846Z,8.57
2023-04-27T11:17:48.891Z,11.43
2023-04-27T11:19:13.312Z,9.63
2023-04-27T11:20:37.212Z,9.77
2023-04-27T11:22:16.159Z,8.32
2023-04-27T11:23:41.089Z,10.77
2023-04-27T11:25:09.198Z,9.55
2023-04-27T11:26:34.745Z,10.38
2023-04-27T11:27:56.405Z,8.73
2023-04-27T11:29:53.864Z,15.43
2023-04-27T11:31:16.839Z,13.48
2023-04-27T11:32:41.903Z,10.45
2023-04-27T11:34:07.805Z,14.82
2023-04-27T11:35:40.201Z,10.45
2023-04-27T11:38:51.957Z,10.00
2023-04-27T11:40:50.229Z,12.35
2023-04-27T11:42:23.454Z,9.13
2023-04-27T11:43:49.778Z,8.98
2023-04-27T11:45:36.118Z,8.57
2023-04-27T11:57:50.790Z,11.63
2023-04-27T11:59:25.738Z,10.27
2023-04-27T12:02:02.696Z,9.48
2023-04-27T12:03:55.727Z,7.78
2023-04-27T12:14:27.010Z,10.45
2023-04-27T12:21:30.368Z,12.90
2023-04-27T12:22:54.815Z,9.55
2023-04-27T12:24:17.545Z,10.80
2023-04-27T12:26:31.931Z,12.48
2023-04-27T12:28:13.394Z,12.18
2023-04-27T12:29:54.921Z,11.23
2023-04-27T12:31:25.360Z,9.95
2023-04-27T12:33:09.887Z,9.68
2023-04-27T12:36:19.812Z,12.10
2023-04-27T12:44:31.140Z,9.82
2023-04-27T12:46:12.072Z,10.17
2023-04-27T12:48:03.332Z,7.78
2023-04-27T12:49:31.672Z,8.32
2023-04-27T13:52:44.946Z,10.77
2023-04-27T13:54:14.408Z,12.90
2023-04-27T13:55:40.926Z,9.27
2023-04-27T13:57:03.649Z,17.63
2023-04-27T13:58:29.903Z,11.55
2023-04-27T13:59:59.897Z,8.15
2023-04-27T14:01:22.577Z,11.43
2023-04-27T14:02:46.029Z,8.38
2023-04-27T14:04:24.278Z,9.75
2023-04-27T14:05:58.727Z,10.63
2023-04-27T14:07:55.546Z,10.50
2023-04-27T14:12:31.127Z,10.48
2023-04-27T14:17:07.750Z,10.85
2023-04-27T14:19:05.559Z,13.40
2023-04-27T14:23:14.690Z,9.40
2023-04-27T14:27:03.516Z,10.88
2023-04-27T14:31:06.485Z,7.93
2023-04-27T14:32:39.792Z,12.23
2023-04-27T14:34:10.584Z,9.30
2023-04-27T14:35:49.882Z,13.18
2023-04-27T14:37:43.492Z,11.38
2023-04-27T14:46:44.688Z,9.27
2023-04-27T15:39:43.788Z,10.35
2023-04-27T16:07:41.596Z,11.50
2023-04-27T16:26:31.207Z,11.85
2023-04-27T16:28:10.562Z,7.72
2023-04-27T16:29:43.737Z,8.32
2023-04-27T16:31:31.814Z,9.13
2023-04-27T16:33:48.369Z,8.15
2023-04-27T16:36:10.812Z,9.98
2023-04-27T16:41:23.852Z,8.48
2023-04-27T16:42:51.087Z,15.60
2023-04-27T16:45:37.306Z,7.45
2023-04-27T16:47:01.511Z,9.38
2023-04-27T16:48:56.374Z,11.80
2023-04-27T16:50:40.398Z,5.82
2023-04-27T16:52:17.368Z,8.88
2023-04-27T16:53:51.201Z,5.63
2023-04-27T16:55:48.795Z,8.13
2023-04-27T16:57:29.983Z,7.70
2023-04-27T16:59:40.118Z,11.02
2023-04-27T17:01:03.499Z,7.80
2023-04-27T17:02:28.830Z,14.18
2023-04-27T17:03:51.800Z,9.38
2023-04-27T17:05:43.614Z,12.88
2023-04-27T17:08:20.420Z,12.20
2023-04-27T17:10:52.371Z,11.05
2023-04-27T17:15:29.011Z,14.75
2023-04-27T17:17:02.568Z,9.75
2023-04-27T17:18:33.650Z,10.95
2023-04-27T17:20:19.904Z,10.10
2023-04-27T17:21:51.694Z,9.70
2023-04-27T17:23:42.185Z,10.30
2023-04-27T17:25:11.875Z,11.05
2023-04-27T17:26:52.555Z,11.05
2023-04-27T17:28:19.410Z,10.15
2023-04-27T17:29:53.834Z,13.52
2023-04-27T17:38:04.524Z,10.15
2023-04-27T17:39:45.978Z,11.15
2023-04-27T17:42:12.985Z,9.05
2023-04-27T17:47:09.957Z,18.33
2023-04-27T17:49:10.074Z,13.93
2023-04-27T17:56:00.710Z,10.38
2023-04-27T18:01:21.731Z,12.48
2023-04-27T18:03:40.327Z,8.35
2023-04-27T18:08:23.837Z,9.88
2023-04-27T18:10:25.351Z,7.47
2023-04-27T19:21:49.685Z,14.73
2023-04-27T19:35:27.105Z,17.23
2023-04-27T19:36:57.008Z,15.70
2023-04-27T19:38:29.713Z,15.38
2023-04-27T19:41:38.157Z,15.85
2023-04-27T19:43:15.114Z,15.20
2023-04-27T19:45:04.093Z,16.30
2023-04-27T19:47:07.004Z,18.23
2023-04-27T19:48:44.967Z,14.82
2023-04-27T19:50:23.352Z,26.25
2023-04-27T19:54:41.670Z,19.25
2023-04-27T20:12:04.658Z,30.77
2023-04-27T20:18:28.968Z,31.30
2023-04-27T20:20:09.782Z,29.88
2023-04-27T20:21:32.914Z,29.70
2023-04-27T20:23:00.585Z,26.13
2023-04-27T20:24:26.094Z,27.75
2023-04-27T20:25:52.890Z,35.67
2023-04-27T20:27:24.824Z,29.23
2023-04-27T20:28:58.987Z,33.38
2023-04-27T22:57:41.795Z,44.20
2023-04-27T23:02:18.871Z,44.08
2023-04-27T23:03:47.289Z,45.17
2023-04-27T23:05:13.865Z,42.42
2023-04-27T23:07:08.776Z,45.50
2023-04-27T23:15:13.572Z,41.90
2023-04-27T23:16:38.760Z,43.92
2023-04-27T23:20:28.863Z,47.90
2023-04-27T23:21:51.010Z,44.40
2023-04-27T23:23:40.046Z,44.17
2023-04-27T23:25:08.813Z,44.00
2023-04-27T23:26:31.186Z,45.53
2023-04-27T23:27:57.201Z,49.50
2023-04-27T23:29:18.630Z,48.28
2023-04-27T23:30:42.577Z,48.25
2023-04-27T23:32:27.197Z,50.28
2023-04-27T23:33:50.951Z,48.93
2023-04-27T23:35:16.768Z,47.13
2023-04-27T23:37:35.012Z,54.08
2023-04-27T23:40:02.258Z,42.35
2023-04-27T23:47:43.128Z,48.38
2023-04-27T23:49:25.333Z,50.88
2023-04-27T23:51:39.028Z,52.13
2023-04-27T23:53:00.628Z,44.55
2023-04-27T23:56:01.395Z,51.05
2023-04-27T23:57:29.553Z,52.30
